createdAt,value
2019-05-02T00:01:51.338Z,86.50
2019-05-02T00:07:08.864Z,85.40
2019-05-02T00:12:18.522Z,85.70
2019-05-02T00:17:25.845Z,86.10
2019-05-02T00:22:29.056Z,86.20
2019-05-02T00:27:37.833Z,86.10
2019-05-02T00:32:39.007Z,86.30
2019-05-02T00:37:43.500Z,86.60
2019-05-02T00:42:47.639Z,87.00
2019-05-02T00:48:01.542Z,87.40
2019-05-02T00:53:10.056Z,87.50
2019-05-02T00:58:11.778Z,87.80
2019-05-02T01:03:17.654Z,86.80
2019-05-02T01:08:22.109Z,87.60
2019-05-02T01:13:26.117Z,86.90
2019-05-02T01:18:30.439Z,87.10
2019-05-02T01:23:34.512Z,87.50
2019-05-02T01:28:54.209Z,87.00
2019-05-02T01:34:13.113Z,87.10
2019-05-02T01:39:16.261Z,87.60
2019-05-02T01:44:20.650Z,87.50
2019-05-02T01:49:24.785Z,87.20
2019-05-02T01:54:28.796Z,87.60
2019-05-02T01:59:33.971Z,87.80
2019-05-02T02:04:38.660Z,88.40
2019-05-02T02:09:45.702Z,88.30
2019-05-02T02:14:53.554Z,88.30
2019-05-02T02:19:58.934Z,87.70
2019-05-02T02:25:20.862Z,87.40
2019-05-02T02:30:26.616Z,87.30
2019-05-02T02:35:31.067Z,86.90
2019-05-02T02:40:35.796Z,87.60
2019-05-02T02:46:01.759Z,87.40
2019-05-02T02:51:05.833Z,87.60
2019-05-02T02:56:10.251Z,88.00
2019-05-02T03:01:14.439Z,88.70
2019-05-02T03:06:18.750Z,89.80
2019-05-02T03:11:25.559Z,89.50
2019-05-02T03:16:31.888Z,89.20
2019-05-02T03:21:37.781Z,88.70
2019-05-02T03:26:41.844Z,88.20
2019-05-02T03:31:46.013Z,88.50
2019-05-02T03:36:50.395Z,87.90
2019-05-02T03:41:55.558Z,87.90
2019-05-02T03:47:02.162Z,87.50
2019-05-02T03:52:06.597Z,87.40
2019-05-02T03:57:10.724Z,87.20
2019-05-02T04:02:20.415Z,87.70
2019-05-02T04:07:21.924Z,86.70
2019-05-02T04:12:26.387Z,86.90
2019-05-02T04:17:35.274Z,87.60
2019-05-02T04:22:43.019Z,87.10
2019-05-02T04:27:42.864Z,87.90
2019-05-02T04:32:49.586Z,89.70
2019-05-02T04:37:52.838Z,88.30
2019-05-02T04:43:04.839Z,88.80
2019-05-02T04:48:04.034Z,88.70
2019-05-02T04:53:08.740Z,89.00
2019-05-02T04:58:24.371Z,87.50
2019-05-02T05:03:21.201Z,88.80
2019-05-02T05:08:31.245Z,87.60
2019-05-02T05:13:31.843Z,88.00
2019-05-02T05:18:37.797Z,86.90
2019-05-02T05:24:18.169Z,87.10
2019-05-02T05:29:23.366Z,87.90
2019-05-02T05:34:32.701Z,86.60
2019-05-02T05:39:35.159Z,88.30
2019-05-02T05:44:39.912Z,87.90
2019-05-02T05:50:08.781Z,87.40
2019-05-02T05:55:20.371Z,87.70
2019-05-02T06:00:23.247Z,87.70
2019-05-02T06:05:33.241Z,87.40
2019-05-02T06:10:39.055Z,88.50
2019-05-02T06:15:45.888Z,88.40
2019-05-02T06:20:50.206Z,88.10
2019-05-02T06:25:55.659Z,89.00
2019-05-02T06:31:02.221Z,87.70
2019-05-02T06:36:06.417Z,87.90
2019-05-02T06:41:11.333Z,87.30
2019-05-02T06:46:16.784Z,88.00
2019-05-02T06:51:51.048Z,86.80
2019-05-02T06:56:58.332Z,88.10
2019-05-02T07:02:03.095Z,87.60
2019-05-02T07:07:13.412Z,88.00
2019-05-02T07:12:19.007Z,87.00
2019-05-02T07:17:42.180Z,87.20
2019-05-02T07:22:50.507Z,86.80
2019-05-02T07:27:57.784Z,86.70
2019-05-02T07:33:02.435Z,86.00
2019-05-02T07:38:10.007Z,86.20
2019-05-02T07:43:21.077Z,85.60
2019-05-02T07:48:21.959Z,84.40
2019-05-02T07:53:28.207Z,85.30
2019-05-02T07:58:47.018Z,84.70
2019-05-02T08:03:46.959Z,84.20
2019-05-02T08:08:51.237Z,84.50
2019-05-02T08:14:00.647Z,84.20
2019-05-02T08:19:05.410Z,83.60
2019-05-02T08:24:15.270Z,83.00
2019-05-02T08:29:23.248Z,82.70
2019-05-02T08:34:46.266Z,81.70
2019-05-02T08:39:50.863Z,81.40
2019-05-02T08:44:56.418Z,80.60
2019-05-02T08:49:59.825Z,80.60
2019-05-02T08:55:11.958Z,80.00
2019-05-02T09:00:17.400Z,80.30
2019-05-02T09:05:21.537Z,79.70
2019-05-02T09:10:25.681Z,79.10
2019-05-02T09:15:31.767Z,78.00
2019-05-02T09:20:35.707Z,75.60
2019-05-02T09:25:42.936Z,73.50
2019-05-02T09:30:46.862Z,68.40
2019-05-02T09:35:51.615Z,64.60
2019-05-02T09:40:56.328Z,62.90
2019-05-02T09:46:02.528Z,59.20
2019-05-02T09:51:15.571Z,58.80
2019-05-02T09:56:14.686Z,59.80
2019-05-02T10:02:01.840Z,60.10
2019-05-02T10:07:06.045Z,60.20
2019-05-02T10:12:15.535Z,57.70
2019-05-02T10:17:19.731Z,57.20
2019-05-02T10:22:32.305Z,57.00
2019-05-02T10:27:33.470Z,57.70
2019-05-02T10:32:37.612Z,60.10
2019-05-02T10:37:43.035Z,57.90
2019-05-02T10:42:47.654Z,55.50
2019-05-02T10:47:52.683Z,55.10
2019-05-02T10:52:56.952Z,54.70
2019-05-02T10:58:04.417Z,54.40
2019-05-02T11:03:15.478Z,54.90
2019-05-02T11:08:22.320Z,57.20
2019-05-02T11:13:53.335Z,58.70
2019-05-02T11:19:12.853Z,58.80
2019-05-02T11:24:18.633Z,59.40
2019-05-02T11:29:22.940Z,59.50
2019-05-02T11:34:27.726Z,59.60
2019-05-02T11:39:41.828Z,59.00
2019-05-02T11:44:38.002Z,58.70
2019-05-02T11:49:46.759Z,56.90
2019-05-02T11:54:53.161Z,56.20
2019-05-02T11:59:59.429Z,56.60
2019-05-02T12:05:03.639Z,55.70
2019-05-02T12:10:07.319Z,56.50
2019-05-02T12:15:15.674Z,55.80
2019-05-02T12:20:22.763Z,55.00
2019-05-02T12:25:26.748Z,55.10
2019-05-02T12:30:34.238Z,55.60
2019-05-02T12:35:37.711Z,55.50
2019-05-02T12:40:43.863Z,56.00
2019-05-02T12:45:48.050Z,56.00
2019-05-02T12:50:52.787Z,55.90
2019-05-02T12:56:02.160Z,55.50
2019-05-02T13:01:05.584Z,55.80
2019-05-02T13:06:09.932Z,55.20
2019-05-02T13:11:42.149Z,54.60
2019-05-02T13:16:44.360Z,54.50
2019-05-02T13:22:22.843Z,54.10
2019-05-02T13:27:42.993Z,53.70
2019-05-02T13:33:13.579Z,54.70
2019-05-02T13:38:23.852Z,54.10
2019-05-02T13:43:33.484Z,54.00
2019-05-02T13:48:37.784Z,55.20
2019-05-02T13:54:02.554Z,55.10
2019-05-02T13:59:11.145Z,56.10
2019-05-02T14:04:18.882Z,55.70
2019-05-02T14:09:38.859Z,56.20
2019-05-02T14:14:43.616Z,54.60
2019-05-02T14:19:54.142Z,54.50
2019-05-02T14:24:56.576Z,54.70
2019-05-02T14:30:02.551Z,54.70
2019-05-02T14:35:26.380Z,54.90
2019-05-02T14:40:34.379Z,55.10
2019-05-02T14:45:41.984Z,55.40
2019-05-02T14:50:47.870Z,55.30
2019-05-02T14:55:57.569Z,54.60
2019-05-02T15:00:59.849Z,55.60
2019-05-02T15:06:30.955Z,56.40
2019-05-02T15:11:35.003Z,57.00
2019-05-02T15:16:43.180Z,57.10
2019-05-02T15:21:51.440Z,56.50
2019-05-02T15:26:52.465Z,56.20
2019-05-02T15:32:27.011Z,62.20
2019-05-02T15:37:35.712Z,66.20
2019-05-02T15:42:38.440Z,69.40
2019-05-02T15:47:45.289Z,69.30
2019-05-02T15:52:57.222Z,71.30
2019-05-02T15:58:02.414Z,72.70
2019-05-02T16:03:07.297Z,73.50
2019-05-02T16:08:12.656Z,74.10
2019-05-02T16:13:17.923Z,74.70
2019-05-02T16:18:21.604Z,76.60
2019-05-02T16:23:32.721Z,76.10
2019-05-02T16:28:32.411Z,76.10
2019-05-02T16:33:36.894Z,75.80
2019-05-02T16:38:42.440Z,77.50
2019-05-02T16:43:46.681Z,76.30
2019-05-02T16:48:52.715Z,77.40
2019-05-02T16:54:01.489Z,77.60
2019-05-02T16:59:02.671Z,77.70
2019-05-02T17:04:06.873Z,78.30
2019-05-02T17:09:33.912Z,79.20
2019-05-02T17:14:36.016Z,78.90
2019-05-02T17:19:40.007Z,79.50
2019-05-02T17:24:44.045Z,79.70
2019-05-02T17:29:52.446Z,80.10
2019-05-02T17:34:53.841Z,80.10
2019-05-02T17:40:01.757Z,80.40
2019-05-02T17:45:06.477Z,81.00
2019-05-02T17:50:21.988Z,81.50
2019-05-02T17:55:25.844Z,81.80
2019-05-02T18:00:33.375Z,81.20
2019-05-02T18:05:37.656Z,81.80
2019-05-02T18:10:41.941Z,82.30
2019-05-02T18:15:46.421Z,82.00
2019-05-02T18:21:02.062Z,82.60
2019-05-02T18:26:06.547Z,83.50
2019-05-02T18:31:12.188Z,84.30
2019-05-02T18:36:17.265Z,84.00
2019-05-02T18:41:22.776Z,85.10
2019-05-02T18:46:26.860Z,85.10
2019-05-02T18:51:32.087Z,85.90
2019-05-02T18:56:44.243Z,85.00
2019-05-02T19:01:47.299Z,85.70
2019-05-02T19:06:48.756Z,85.90
2019-05-02T19:12:04.824Z,84.80
2019-05-02T19:17:03.588Z,84.40
2019-05-02T19:22:07.453Z,85.20
2019-05-02T19:27:12.918Z,85.70
2019-05-02T19:32:25.518Z,85.70
2019-05-02T19:37:25.361Z,85.30
2019-05-02T19:42:29.760Z,85.60
2019-05-02T19:47:33.866Z,86.40
2019-05-02T19:52:40.511Z,86.20
2019-05-02T19:57:44.948Z,85.80
2019-05-02T20:02:49.057Z,86.70
2019-05-02T20:07:53.430Z,85.70
2019-05-02T20:12:57.450Z,87.10
2019-05-02T20:18:04.808Z,87.30
2019-05-02T20:23:15.618Z,87.30
2019-05-02T20:28:13.235Z,87.80
2019-05-02T20:33:17.323Z,88.00
2019-05-02T20:38:21.972Z,87.20
2019-05-02T20:43:26.298Z,86.90
2019-05-02T20:48:32.268Z,87.40
2019-05-02T20:53:36.279Z,87.30
2019-05-02T20:58:41.955Z,87.70
2019-05-02T21:03:49.646Z,87.70
2019-05-02T21:09:19.038Z,87.80
2019-05-02T21:14:23.173Z,88.40
2019-05-02T21:19:27.135Z,87.70
2019-05-02T21:24:32.750Z,88.20
2019-05-02T21:29:37.293Z,88.40
2019-05-02T21:34:43.000Z,87.90
2019-05-02T21:39:47.023Z,88.60
2019-05-02T21:44:51.777Z,87.80
2019-05-02T21:50:14.529Z,88.30
2019-05-02T21:55:26.807Z,87.90
2019-05-02T22:00:52.785Z,87.70
2019-05-02T22:05:57.250Z,87.40
2019-05-02T22:11:01.899Z,89.00
2019-05-02T22:16:06.210Z,90.00
2019-05-02T22:21:12.187Z,90.50
2019-05-02T22:26:16.898Z,90.20
2019-05-02T22:31:22.658Z,90.20
2019-05-02T22:36:27.169Z,90.20
2019-05-02T22:41:32.722Z,90.60
2019-05-02T22:46:44.192Z,90.70
2019-05-02T22:51:48.220Z,90.60
2019-05-02T22:56:52.330Z,91.10
2019-05-02T23:01:57.364Z,90.80
2019-05-02T23:07:02.308Z,91.10
2019-05-02T23:12:06.788Z,91.40
2019-05-02T23:17:12.773Z,91.60
2019-05-02T23:22:16.778Z,90.90
2019-05-02T23:27:33.625Z,90.20
2019-05-02T23:32:38.225Z,90.10
2019-05-02T23:37:44.008Z,90.00
2019-05-02T23:42:48.257Z,90.10
2019-05-02T23:47:52.890Z,90.20
2019-05-02T23:52:56.998Z,90.00
2019-05-02T23:58:02.806Z,88.50
